Only, Tennessee
Current Conditions -  °F | °C
As of 3:15 AM on Monday 24 Nov 2014 (Local Time) from KPVE Reporting Station
Broken Clouds Broken Clouds  
Wind Chill: 61°   Ceiling: 3300
Heat Index: 61°   Visibility: 10mi
Dew Point: 54°   Wind: 30mph
Humidity: 77%   Direction: 210°SSW
Pressure: 29.46"   Gusts: NA
Location:  35.86°N, 87.69°W
Report Text: KPVE 240915Z AUTO 21026KT 10SM SCT027 BKN033 BKN041 16/12 A2946 RMK
Loading
Personal Weather Stations






























Interactive Weather Map New forecast layout! Learn more

10-Day Weather Forecast

Advertisements
Track Severe Weather on mobile